Time;durP1;ratioP1;P1;durP2;ratioP2;P2;SDS_P1;SDS_P2;PMS_P1;PMS_P2;Temp;Humidity;BMP_temperature;BMP_pressure;BME280_temperature;BME280_humidity;BME280_pressure;Samples;Min_cycle;Max_cycle;Signal;HPM_P1;HPM_P2
2021/09/23 00:01:57;;;;;;;27.07;13.33;;;;;;;-145.18;100.00;60484.78;5013313;28;20636;-69
2021/09/23 00:05:40;;;;;;;26.53;13.23;;;;;;;-145.18;100.00;60484.78;5011965;28;20072;-69
2021/09/23 00:09:06;;;;;;;30.73;15.02;;;;;;;-145.18;100.00;60484.78;5023341;28;20033;-69
2021/09/23 00:12:30;;;;;;;33.13;14.40;;;;;;;-145.18;100.00;60484.78;5017962;28;20340;-69
2021/09/23 00:15:54;;;;;;;31.37;15.30;;;;;;;-145.18;100.00;60484.78;5022869;28;20363;-69
2021/09/23 00:19:18;;;;;;;34.73;15.73;;;;;;;-145.18;100.00;60484.78;5021284;28;20029;-68
2021/09/23 00:22:43;;;;;;;31.60;15.20;;;;;;;-145.18;100.00;60484.78;5022160;28;20025;-69
2021/09/23 00:26:07;;;;;;;28.73;14.00;;;;;;;-145.18;100.00;60484.78;5020755;28;20551;-69
2021/09/23 00:29:31;;;;;;;26.63;13.57;;;;;;;-145.18;100.00;60484.78;5022745;28;20182;-69
2021/09/23 00:32:56;;;;;;;32.40;15.10;;;;;;;-145.18;100.00;60484.78;5015445;28;20029;-69
2021/09/23 00:36:20;;;;;;;29.53;13.90;;;;;;;-145.18;100.00;60484.78;5020540;28;20262;-69
2021/09/23 00:39:44;;;;;;;34.20;15.80;;;;;;;-145.18;100.00;60484.78;5022573;28;20033;-69
2021/09/23 00:43:08;;;;;;;32.27;14.67;;;;;;;-145.18;100.00;60484.78;5021417;28;20505;-69
2021/09/23 00:46:32;;;;;;;31.27;15.40;;;;;;;-145.18;100.00;60484.78;5012820;28;20143;-69
2021/09/23 00:49:56;;;;;;;35.07;15.13;;;;;;;-145.18;100.00;60484.78;5021193;28;20083;-69
2021/09/23 00:53:21;;;;;;;35.63;15.47;;;;;;;-145.18;100.00;60484.78;5017523;28;20029;-69
2021/09/23 00:56:46;;;;;;;33.20;15.77;;;;;;;-145.18;100.00;60484.78;5015818;28;20084;-69
2021/09/23 01:00:12;;;;;;;35.43;15.27;;;;;;;-145.18;100.00;60484.78;5020082;28;20482;-69
2021/09/23 01:03:37;;;;;;;33.60;15.97;;;;;;;-145.18;100.00;60484.78;5074853;22;20173;-70
2021/09/23 01:07:01;;;;;;;32.43;15.40;;;;;;;-145.18;100.00;60484.78;5082353;28;20247;-70
2021/09/23 01:10:25;;;;;;;34.00;15.67;;;;;;;-145.18;100.00;60484.78;5076534;28;20028;-68
2021/09/23 01:13:49;;;;;;;32.27;15.53;;;;;;;-145.18;100.00;60484.78;5080052;28;20082;-70
2021/09/23 01:17:14;;;;;;;35.70;15.83;;;;;;;-145.18;100.00;60484.78;5075256;28;20032;-69
2021/09/23 01:20:42;;;;;;;34.33;16.23;;;;;;;-145.18;100.00;60484.78;5086763;28;20535;-70
2021/09/23 01:24:06;;;;;;;35.57;16.27;;;;;;;-145.18;100.00;60484.78;5070565;28;20116;-70
2021/09/23 01:27:30;;;;;;;37.43;17.70;;;;;;;-145.18;100.00;60484.78;5079019;28;20143;-70
2021/09/23 01:30:54;;;;;;;38.30;17.63;;;;;;;-145.18;100.00;60484.78;5079576;28;20024;-70
2021/09/23 01:34:19;;;;;;;36.40;16.77;;;;;;;-145.18;100.00;60484.78;5079245;28;20480;-70
2021/09/23 01:37:43;;;;;;;33.40;15.87;;;;;;;-145.18;100.00;60484.78;5072862;28;20464;-68
2021/09/23 01:41:09;;;;;;;33.17;16.63;;;;;;;-145.18;100.00;60484.78;5082302;28;20064;-68
2021/09/23 01:44:33;;;;;;;37.20;18.10;;;;;;;-145.18;100.00;60484.78;5075902;28;20035;-68
2021/09/23 01:47:57;;;;;;;35.17;16.87;;;;;;;-145.18;100.00;60484.78;5077577;28;20483;-68
2021/09/23 01:51:21;;;;;;;40.90;16.97;;;;;;;-145.18;100.00;60484.78;5080375;28;20113;-68
2021/09/23 01:54:47;;;;;;;34.60;16.97;;;;;;;-145.18;100.00;60484.78;5078092;28;20026;-68
2021/09/23 01:58:12;;;;;;;38.67;18.50;;;;;;;-145.18;100.00;60484.78;5071442;28;20037;-69
2021/09/23 02:01:36;;;;;;;36.07;17.43;;;;;;;-145.18;100.00;60484.78;5071846;28;20023;-69
2021/09/23 02:05:00;;;;;;;36.90;17.47;;;;;;;-145.18;100.00;60484.78;5076738;28;20533;-69
2021/09/23 02:08:24;;;;;;;36.47;17.07;;;;;;;-145.18;100.00;60484.78;5074462;28;20024;-69
2021/09/23 02:11:48;;;;;;;35.73;17.57;;;;;;;-145.18;100.00;60484.78;5075372;28;20027;-69
2021/09/23 02:15:12;;;;;;;33.77;17.03;;;;;;;-145.18;100.00;60484.78;5075421;28;20428;-69
2021/09/23 02:18:36;;;;;;;35.63;16.80;;;;;;;-145.18;100.00;60484.78;5071698;28;20256;-69
2021/09/23 02:22:04;;;;;;;35.33;16.60;;;;;;;-145.18;100.00;60484.78;5071678;28;20019;-68
2021/09/23 02:25:28;;;;;;;37.43;16.17;;;;;;;-145.18;100.00;60484.78;5081742;28;20278;-69
2021/09/23 02:28:52;;;;;;;38.57;17.07;;;;;;;-145.18;100.00;60484.78;5068140;28;20153;-69
2021/09/23 02:32:06;;;;;;;36.47;17.50;;;;;;;-145.18;100.00;60484.78;5071777;28;20176;-70
2021/09/23 02:35:34;;;;;;;38.83;16.43;;;;;;;-145.18;100.00;60484.78;5078361;28;20050;-69
2021/09/23 02:38:58;;;;;;;36.50;17.03;;;;;;;-145.18;100.00;60484.78;5075201;28;20028;-69
2021/09/23 02:42:22;;;;;;;37.40;16.10;;;;;;;-145.18;100.00;60484.78;5082357;28;20024;-70
2021/09/23 02:45:46;;;;;;;36.50;17.03;;;;;;;-145.18;100.00;60484.78;5079577;28;20407;-69
2021/09/23 02:49:10;;;;;;;34.30;16.13;;;;;;;-145.18;100.00;60484.78;5073783;28;20036;-69
2021/09/23 02:52:34;;;;;;;37.13;17.20;;;;;;;-145.18;100.00;60484.78;5089789;28;20038;-70
2021/09/23 02:55:58;;;;;;;35.40;16.57;;;;;;;-145.18;100.00;60484.78;5070541;28;20025;-70
2021/09/23 02:59:22;;;;;;;36.93;17.77;;;;;;;-145.18;100.00;60484.78;5071710;28;20027;-70
2021/09/23 03:02:46;;;;;;;33.47;17.37;;;;;;;-145.18;100.00;60484.78;5078072;28;20174;-70
2021/09/23 03:06:11;;;;;;;37.60;17.33;;;;;;;-145.18;100.00;60484.78;5080082;28;20032;-70
2021/09/23 03:09:35;;;;;;;37.27;17.13;;;;;;;-145.18;100.00;60484.78;5077972;28;20027;-70
2021/09/23 03:12:59;;;;;;;37.53;17.10;;;;;;;-145.18;100.00;60484.78;5078236;28;20154;-70
2021/09/23 03:16:23;;;;;;;36.47;16.80;;;;;;;-145.18;100.00;60484.78;5067105;28;20152;-70
2021/09/23 03:19:47;;;;;;;40.07;17.83;;;;;;;-145.18;100.00;60484.78;5085998;28;20058;-70
2021/09/23 03:23:12;;;;;;;37.67;17.23;;;;;;;-145.18;100.00;60484.78;5074858;28;20519;-70
2021/09/23 03:26:37;;;;;;;36.60;17.23;;;;;;;-145.18;100.00;60484.78;5078586;28;20055;-70
2021/09/23 03:30:03;;;;;;;39.93;16.83;;;;;;;-145.18;100.00;60484.78;5079273;28;20547;-70
2021/09/23 03:33:28;;;;;;;41.27;16.77;;;;;;;-145.18;100.00;60484.78;5081136;28;20034;-70
2021/09/23 03:36:52;;;;;;;34.33;16.13;;;;;;;-145.18;100.00;60484.78;5082688;28;20264;-70
2021/09/23 03:40:17;;;;;;;37.93;17.10;;;;;;;-145.18;100.00;60484.78;5081198;28;20484;-70
2021/09/23 03:43:41;;;;;;;34.43;16.30;;;;;;;-145.18;100.00;60484.78;5082460;28;20028;-70
2021/09/23 03:47:05;;;;;;;35.33;16.33;;;;;;;-145.18;100.00;60484.78;5083433;28;20036;-70
2021/09/23 03:50:29;;;;;;;34.67;17.10;;;;;;;-145.18;100.00;60484.78;5081333;28;20023;-70
2021/09/23 03:53:53;;;;;;;37.00;16.70;;;;;;;-145.18;100.00;60484.78;5068817;28;20117;-70
2021/09/23 03:57:17;;;;;;;35.37;16.33;;;;;;;-145.18;100.00;60484.78;5069974;28;20108;-70
2021/09/23 04:00:41;;;;;;;41.20;17.07;;;;;;;-145.18;100.00;60484.78;5073543;28;20050;-70
2021/09/23 04:04:05;;;;;;;37.00;16.40;;;;;;;-145.18;100.00;60484.78;5078374;28;20043;-70
2021/09/23 04:07:29;;;;;;;34.40;15.43;;;;;;;-145.18;100.00;60484.78;5082852;28;20172;-70
2021/09/23 04:10:53;;;;;;;31.60;16.50;;;;;;;-145.18;100.00;60484.78;5078680;28;20031;-70
2021/09/23 04:14:17;;;;;;;31.83;15.33;;;;;;;-145.18;100.00;60484.78;5083196;28;20028;-70
2021/09/23 04:17:41;;;;;;;32.33;16.30;;;;;;;-145.18;100.00;60484.78;5088347;28;20077;-70
2021/09/23 04:21:06;;;;;;;36.53;15.50;;;;;;;-145.18;100.00;60484.78;5084912;28;20274;-70
2021/09/23 04:24:30;;;;;;;33.27;15.97;;;;;;;-145.18;100.00;60484.78;5071937;28;20028;-70
2021/09/23 04:27:54;;;;;;;33.17;15.33;;;;;;;-145.18;100.00;60484.78;5072722;28;20104;-70
2021/09/23 04:31:18;;;;;;;35.40;15.80;;;;;;;-145.18;100.00;60484.78;5073325;28;20286;-71
2021/09/23 04:34:42;;;;;;;32.03;15.30;;;;;;;-145.18;100.00;60484.78;5080766;28;20119;-70
2021/09/23 04:38:06;;;;;;;36.10;15.47;;;;;;;-145.18;100.00;60484.78;5082725;28;20267;-70
2021/09/23 04:41:30;;;;;;;34.40;15.40;;;;;;;-145.18;100.00;60484.78;5077355;28;20028;-70
2021/09/23 04:44:54;;;;;;;32.97;15.40;;;;;;;-145.18;100.00;60484.78;5091307;28;20526;-70
2021/09/23 04:48:18;;;;;;;34.30;15.87;;;;;;;-145.18;100.00;60484.78;5071692;28;20027;-70
2021/09/23 04:51:43;;;;;;;30.13;14.63;;;;;;;-145.18;100.00;60484.78;5082891;28;20456;-70
2021/09/23 04:55:07;;;;;;;33.40;15.63;;;;;;;-145.18;100.00;60484.78;5080491;28;20035;-71
2021/09/23 04:58:31;;;;;;;32.37;14.83;;;;;;;-145.18;100.00;60484.78;5082484;28;20034;-70
2021/09/23 05:01:55;;;;;;;36.30;15.07;;;;;;;-145.18;100.00;60484.78;5073875;28;20020;-70
2021/09/23 05:05:19;;;;;;;35.83;16.20;;;;;;;-145.18;100.00;60484.78;5076932;28;20086;-69
2021/09/23 05:08:43;;;;;;;31.63;15.50;;;;;;;-145.18;100.00;60484.78;5078028;28;20105;-69
2021/09/23 05:12:07;;;;;;;38.60;15.30;;;;;;;-145.18;100.00;60484.78;5082676;28;20024;-70
2021/09/23 05:15:31;;;;;;;31.37;15.10;;;;;;;-145.18;100.00;60484.78;5072506;28;20024;-69
2021/09/23 05:18:56;;;;;;;31.03;15.13;;;;;;;-145.18;100.00;60484.78;5081840;28;20067;-69
2021/09/23 05:22:23;;;;;;;36.23;15.13;;;;;;;-145.18;100.00;60484.78;5083651;28;20037;-69
2021/09/23 05:25:47;;;;;;;29.03;13.93;;;;;;;-145.18;100.00;60484.78;5079053;28;20056;-69
2021/09/23 05:29:11;;;;;;;32.47;15.27;;;;;;;-145.18;100.00;60484.78;5078893;28;20040;-69
2021/09/23 05:32:35;;;;;;;35.23;15.13;;;;;;;-145.18;100.00;60484.78;5078463;28;20024;-69
2021/09/23 05:35:59;;;;;;;31.03;14.53;;;;;;;-145.18;100.00;60484.78;5082997;28;20524;-69
2021/09/23 05:39:23;;;;;;;32.13;13.60;;;;;;;-145.18;100.00;60484.78;5072545;28;20410;-69
2021/09/23 05:42:47;;;;;;;28.33;13.73;;;;;;;-145.18;100.00;60484.78;5077602;28;20028;-70
2021/09/23 05:46:11;;;;;;;31.20;13.43;;;;;;;-145.18;100.00;60484.78;5078951;28;20123;-69
2021/09/23 05:49:35;;;;;;;31.87;13.87;;;;;;;-145.18;100.00;60484.78;5078528;28;20631;-69
2021/09/23 05:52:59;;;;;;;35.07;15.17;;;;;;;-145.18;100.00;60484.78;5075094;28;20029;-70
2021/09/23 05:56:23;;;;;;;26.00;12.77;;;;;;;-145.18;100.00;60484.78;5065783;28;20052;-69
2021/09/23 05:59:47;;;;;;;34.03;13.37;;;;;;;-145.18;100.00;60484.78;5078402;28;20024;-70
2021/09/23 06:03:11;;;;;;;26.33;13.23;;;;;;;-145.18;100.00;60484.78;5066880;28;20575;-70
2021/09/23 06:06:37;;;;;;;33.97;12.87;;;;;;;-145.18;100.00;60484.78;5068964;28;20040;-70
2021/09/23 06:10:01;;;;;;;29.10;13.30;;;;;;;-145.18;100.00;60484.78;5080051;28;20294;-69
2021/09/23 06:13:25;;;;;;;27.20;12.57;;;;;;;-145.18;100.00;60484.78;5078681;28;20134;-69
2021/09/23 06:16:49;;;;;;;27.77;11.77;;;;;;;-145.18;100.00;60484.78;5073145;28;20480;-70
2021/09/23 06:20:13;;;;;;;30.80;13.27;;;;;;;-145.18;100.00;60484.78;5074029;28;20254;-70
2021/09/23 06:23:38;;;;;;;27.50;12.67;;;;;;;-145.18;100.00;60484.78;5071165;28;20302;-70
2021/09/23 06:27:02;;;;;;;26.40;12.50;;;;;;;-145.18;100.00;60484.78;5076870;28;20194;-69
2021/09/23 06:30:26;;;;;;;22.60;11.90;;;;;;;-145.18;100.00;60484.78;5077116;28;20047;-69
2021/09/23 06:33:50;;;;;;;26.13;11.33;;;;;;;-145.18;100.00;60484.78;5077216;28;20453;-70
2021/09/23 06:37:15;;;;;;;26.80;12.93;;;;;;;-145.18;100.00;60484.78;5072061;28;20111;-69
2021/09/23 06:40:39;;;;;;;25.10;12.17;;;;;;;-145.18;100.00;60484.78;5076288;28;20366;-70
2021/09/23 06:44:05;;;;;;;27.27;12.37;;;;;;;-145.18;100.00;60484.78;5077666;28;20495;-69
2021/09/23 06:47:29;;;;;;;28.77;12.30;;;;;;;-145.18;100.00;60484.78;5075527;28;20108;-70
2021/09/23 06:50:53;;;;;;;29.53;12.77;;;;;;;-145.18;100.00;60484.78;5066979;28;20169;-70
2021/09/23 06:54:19;;;;;;;28.97;12.20;;;;;;;-145.18;100.00;60484.78;5074060;28;20028;-69
2021/09/23 06:57:43;;;;;;;22.83;11.73;;;;;;;-145.18;100.00;60484.78;5068155;28;20032;-69
2021/09/23 07:01:08;;;;;;;25.37;11.57;;;;;;;-145.18;100.00;60484.78;5078965;28;20460;-69
2021/09/23 07:04:32;;;;;;;25.83;12.20;;;;;;;-145.18;100.00;60484.78;5081624;28;20097;-69
2021/09/23 07:07:56;;;;;;;24.30;11.30;;;;;;;-145.18;100.00;60484.78;5071367;28;20423;-69
2021/09/23 07:11:20;;;;;;;21.23;10.23;;;;;;;-145.18;100.00;60484.78;5080215;28;20399;-69
2021/09/23 07:14:44;;;;;;;24.43;12.47;;;;;;;-145.18;100.00;60484.78;5075224;28;20407;-70
2021/09/23 07:18:09;;;;;;;25.47;12.00;;;;;;;-145.18;100.00;60484.78;5076942;28;20012;-70
2021/09/23 07:21:33;;;;;;;24.27;12.20;;;;;;;-145.18;100.00;60484.78;5074275;28;20414;-70
2021/09/23 07:24:57;;;;;;;29.00;11.60;;;;;;;-145.18;100.00;60484.78;5075809;28;20115;-70
2021/09/23 07:28:22;;;;;;;25.03;11.90;;;;;;;-145.18;100.00;60484.78;5063488;28;20286;-70
2021/09/23 07:31:46;;;;;;;24.63;10.20;;;;;;;-145.18;100.00;60484.78;5080871;28;20024;-70
2021/09/23 07:35:12;;;;;;;24.60;12.70;;;;;;;-145.18;100.00;60484.78;5081429;28;20024;-70
2021/09/23 07:38:36;;;;;;;24.73;12.60;;;;;;;-145.18;100.00;60484.78;5081605;28;20028;-70
2021/09/23 07:42:01;;;;;;;24.97;11.63;;;;;;;-145.18;100.00;60484.78;5078399;28;20112;-70
2021/09/23 07:45:25;;;;;;;23.60;11.53;;;;;;;-145.18;100.00;60484.78;5080426;28;20028;-70
2021/09/23 07:48:53;;;;;;;27.67;12.50;;;;;;;-145.18;100.00;60484.78;5073509;28;20180;-70
2021/09/23 07:52:17;;;;;;;23.60;11.77;;;;;;;-145.18;100.00;60484.78;5079809;28;20480;-70
2021/09/23 07:55:41;;;;;;;23.03;11.57;;;;;;;-145.18;100.00;60484.78;5083740;28;20030;-70
2021/09/23 07:59:05;;;;;;;25.77;12.40;;;;;;;-145.18;100.00;60484.78;5077597;28;20092;-70
2021/09/23 08:02:29;;;;;;;26.73;11.73;;;;;;;-145.18;100.00;60484.78;5080206;28;20453;-70
2021/09/23 08:05:53;;;;;;;27.07;12.17;;;;;;;-145.18;100.00;60484.78;5078496;28;20075;-70
2021/09/23 08:09:17;;;;;;;25.23;11.70;;;;;;;-145.18;100.00;60484.78;5078556;28;20091;-70
2021/09/23 08:12:42;;;;;;;24.87;11.37;;;;;;;-145.18;100.00;60484.78;5073778;28;20070;-70
2021/09/23 08:16:06;;;;;;;26.40;11.38;;;;;;;-145.18;100.00;60484.78;5075219;28;20028;-70
2021/09/23 08:19:31;;;;;;;24.95;11.80;;;;;;;-145.18;100.00;60484.78;5067165;28;20035;-70
2021/09/23 08:22:55;;;;;;;22.60;10.65;;;;;;;-145.18;100.00;60484.78;5075388;28;20290;-70
2021/09/23 08:26:20;;;;;;;23.65;11.20;;;;;;;-145.18;100.00;60484.78;5068355;28;20415;-70
2021/09/23 08:29:45;;;;;;;23.67;10.98;;;;;;;-145.18;100.00;60484.78;5073063;28;20755;-70
2021/09/23 08:33:09;;;;;;;25.10;10.93;;;;;;;-145.18;100.00;60484.78;5061631;28;20032;-70
2021/09/23 08:35:44;;;;;;;22.58;10.50;;;;;;;-145.18;100.00;60484.78;5077196;28;20251;-69
2021/09/23 08:39:09;;;;;;;18.63;9.23;;;;;;;-145.18;100.00;60484.78;5078476;28;20032;-70
2021/09/23 08:42:33;;;;;;;22.23;9.73;;;;;;;-145.18;100.00;60484.78;5077210;28;20032;-69
2021/09/23 08:45:58;;;;;;;21.38;9.82;;;;;;;-145.18;100.00;60484.78;5072354;28;20078;-69
2021/09/23 08:49:22;;;;;;;21.58;10.30;;;;;;;-145.18;100.00;60484.78;5072172;28;20032;-70
2021/09/23 08:52:16;;;;;;;22.23;11.82;;;;;;;-145.18;100.00;60484.78;5079936;28;20028;-69
2021/09/23 08:55:40;;;;;;;26.70;12.50;;;;;;;-145.18;100.00;60484.78;5071149;28;20024;-69
2021/09/23 08:59:05;;;;;;;23.37;11.70;;;;;;;-145.18;100.00;60484.78;5076848;28;20020;-69
2021/09/23 09:02:33;;;;;;;22.97;11.63;;;;;;;-145.18;100.00;60484.78;5072563;28;20108;-69
2021/09/23 09:05:57;;;;;;;24.57;11.07;;;;;;;-145.18;100.00;60484.78;5073086;28;20066;-69
2021/09/23 09:09:21;;;;;;;27.90;11.90;;;;;;;-145.18;100.00;60484.78;5074239;28;20208;-69
2021/09/23 09:12:45;;;;;;;21.73;10.00;;;;;;;-145.18;100.00;60484.78;5075207;28;20020;-69
2021/09/23 09:16:09;;;;;;;23.63;10.97;;;;;;;-145.18;100.00;60484.78;5079483;28;20027;-70
2021/09/23 09:19:47;;;;;;;22.53;11.07;;;;;;;-145.18;100.00;60484.78;5078125;28;20035;-69
2021/09/23 09:23:13;;;;;;;19.83;9.47;;;;;;;-145.18;100.00;60484.78;5092779;28;20031;-69
2021/09/23 09:26:43;;;;;;;23.20;11.60;;;;;;;-145.18;100.00;60484.78;5076057;28;20028;-69
2021/09/23 09:30:31;;;;;;;19.77;9.90;;;;;;;-145.18;100.00;60484.78;5076065;28;20032;-69
2021/09/23 09:33:59;;;;;;;22.40;11.47;;;;;;;-145.18;100.00;60484.78;5071001;28;20043;-69
2021/09/23 09:37:34;;;;;;;22.37;11.50;;;;;;;-145.18;100.00;60484.78;5072941;28;20613;-70
2021/09/23 09:41:00;;;;;;;19.40;10.53;;;;;;;-145.18;100.00;60484.78;5059179;28;20556;-70
2021/09/23 09:44:24;;;;;;;22.67;11.30;;;;;;;-145.18;100.00;60484.78;5078797;28;20047;-69
2021/09/23 09:47:53;;;;;;;26.07;11.00;;;;;;;-145.18;100.00;60484.78;5079064;28;20022;-69
2021/09/23 09:51:22;;;;;;;21.40;10.37;;;;;;;-145.18;100.00;60484.78;5078552;28;20031;-69
2021/09/23 09:55:09;;;;;;;18.77;9.80;;;;;;;-145.18;100.00;60484.78;5072668;28;20485;-70
2021/09/23 09:58:41;;;;;;;17.90;10.53;;;;;;;-145.18;100.00;60484.78;5072693;28;20024;-71
2021/09/23 10:02:06;;;;;;;21.02;9.75;;;;;;;-145.18;100.00;60484.78;5075501;28;20420;-69
2021/09/23 10:05:30;;;;;;;15.43;8.43;;;;;;;-145.18;100.00;60484.78;5078804;28;20036;-69
2021/09/23 10:08:09;;;;;;;15.00;7.73;;;;;;;-145.18;100.00;60484.78;5078327;28;20476;-68
2021/09/23 10:10:36;;;;;;;16.57;7.87;;;;;;;-145.18;100.00;60484.78;5079026;28;20127;-68
2021/09/23 10:13:03;;;;;;;14.87;7.13;;;;;;;-145.18;100.00;60484.78;5086108;28;20122;-70
2021/09/23 10:15:29;;;;;;;15.10;8.27;;;;;;;-145.18;100.00;60484.78;5078606;28;20024;-69
2021/09/23 10:17:59;;;;;;;13.70;6.50;;;;;;;-145.18;100.00;60484.78;5078280;28;20028;-69
2021/09/23 10:20:25;;;;;;;13.00;7.30;;;;;;;-145.18;100.00;60484.78;5075479;28;20036;-69
2021/09/23 10:22:53;;;;;;;18.03;7.83;;;;;;;-145.18;100.00;60484.78;5073329;28;20118;-70
2021/09/23 10:25:21;;;;;;;13.93;7.10;;;;;;;-145.18;100.00;60484.78;5078468;28;20244;-69
2021/09/23 10:28:01;;;;;;;15.30;6.47;;;;;;;-145.18;100.00;60484.78;5077929;28;20530;-70
2021/09/23 10:30:42;;;;;;;12.80;6.23;;;;;;;-145.18;100.00;60484.78;5061107;28;20024;-70
2021/09/23 10:33:08;;;;;;;13.03;6.27;;;;;;;-145.18;100.00;60484.78;5073578;28;20043;-70
2021/09/23 10:35:34;;;;;;;13.70;6.10;;;;;;;-145.18;100.00;60484.78;5058758;28;20025;-70
2021/09/23 10:38:07;;;;;;;12.80;6.23;;;;;;;-145.18;100.00;60484.78;5064757;28;20259;-70
2021/09/23 10:40:35;;;;;;;14.27;6.17;;;;;;;-145.18;100.00;60484.78;5075140;28;20476;-70
2021/09/23 10:43:06;;;;;;;13.90;5.90;;;;;;;-145.18;100.00;60484.78;5071032;28;20032;-70
2021/09/23 10:45:34;;;;;;;12.90;6.50;;;;;;;-145.18;100.00;60484.78;5070501;28;20519;-70
2021/09/23 10:48:01;;;;;;;11.17;6.00;;;;;;;-145.18;100.00;60484.78;5069804;28;20032;-68
2021/09/23 10:50:35;;;;;;;13.03;6.67;;;;;;;-145.18;100.00;60484.78;5080655;28;20242;-69
2021/09/23 10:53:05;;;;;;;12.63;6.90;;;;;;;-145.18;100.00;60484.78;5077959;28;20032;-69
2021/09/23 10:55:35;;;;;;;15.70;6.60;;;;;;;-145.18;100.00;60484.78;5068357;28;20112;-70
2021/09/23 10:58:01;;;;;;;11.87;5.83;;;;;;;-145.18;100.00;60484.78;5063002;28;20107;-69
2021/09/23 11:00:30;;;;;;;12.80;6.10;;;;;;;-145.18;100.00;60484.78;5077737;28;20130;-70
2021/09/23 11:02:56;;;;;;;11.67;5.87;;;;;;;-145.18;100.00;60484.78;5077482;28;20043;-69
2021/09/23 11:05:22;;;;;;;12.30;5.77;;;;;;;-145.18;100.00;60484.78;5078036;28;20024;-69
2021/09/23 11:07:50;;;;;;;12.50;5.97;;;;;;;-145.18;100.00;60484.78;5077419;28;20024;-69
2021/09/23 11:10:21;;;;;;;12.13;5.67;;;;;;;-145.18;100.00;60484.78;5074623;28;20094;-69
2021/09/23 11:12:53;;;;;;;15.53;7.07;;;;;;;-145.18;100.00;60484.78;5077500;28;20246;-69
2021/09/23 11:15:22;;;;;;;14.73;6.82;;;;;;;-145.18;100.00;60484.78;5077910;28;20286;-70
2021/09/23 11:17:49;;;;;;;14.17;7.37;;;;;;;-145.18;100.00;60484.78;5077262;28;20573;-69
2021/09/23 11:20:31;;;;;;;10.87;6.23;;;;;;;-145.18;100.00;60484.78;5078166;28;20102;-69
2021/09/23 11:22:59;;;;;;;14.57;7.68;;;;;;;-145.18;100.00;60484.78;5075996;28;20079;-69
2021/09/23 11:25:51;;;;;;;12.60;6.67;;;;;;;-145.18;100.00;60484.78;5078033;28;20031;-69
2021/09/23 11:28:19;;;;;;;12.63;6.00;;;;;;;-145.18;100.00;60484.78;5078851;28;20138;-69
2021/09/23 11:30:44;;;;;;;10.43;5.50;;;;;;;-145.18;100.00;60484.78;5077917;28;20054;-70
2021/09/23 11:33:12;;;;;;;11.37;6.50;;;;;;;-145.18;100.00;60484.78;5081036;28;20062;-70
2021/09/23 11:35:40;;;;;;;12.50;6.40;;;;;;;-145.18;100.00;60484.78;5081750;28;20015;-70
2021/09/23 11:38:07;;;;;;;12.50;6.30;;;;;;;-145.18;100.00;60484.78;5081295;28;20189;-70
2021/09/23 11:40:36;;;;;;;14.77;7.07;;;;;;;-145.18;100.00;60484.78;5081141;28;20323;-70
2021/09/23 11:43:04;;;;;;;11.70;6.30;;;;;;;-145.18;100.00;60484.78;5081241;28;20051;-70
2021/09/23 11:45:36;;;;;;;11.87;6.77;;;;;;;-145.18;100.00;60484.78;5080990;28;20024;-69
2021/09/23 11:48:10;;;;;;;13.52;6.53;;;;;;;-145.18;100.00;60484.78;5080834;28;20103;-69
2021/09/23 11:50:42;;;;;;;13.63;6.63;;;;;;;-145.18;100.00;60484.78;5079119;28;20058;-69
2021/09/23 11:53:16;;;;;;;14.82;6.47;;;;;;;-145.18;100.00;60484.78;5081063;28;20036;-69
2021/09/23 11:56:01;;;;;;;13.63;6.90;;;;;;;-145.18;100.00;60484.78;5081119;28;20028;-70
2021/09/23 11:58:28;;;;;;;12.97;6.67;;;;;;;-145.18;100.00;60484.78;5081231;28;20038;-70
2021/09/23 12:00:54;;;;;;;13.07;6.57;;;;;;;-145.18;100.00;60484.78;5080219;28;20034;-69
2021/09/23 12:03:21;;;;;;;14.87;6.67;;;;;;;-145.18;100.00;60484.78;5079217;28;20040;-69
2021/09/23 12:05:48;;;;;;;13.93;6.83;;;;;;;-145.18;100.00;60484.78;5080881;28;20024;-70
2021/09/23 12:08:25;;;;;;;14.47;7.80;;;;;;;-145.18;100.00;60484.78;5081044;28;20109;-69
2021/09/23 12:10:59;;;;;;;13.70;6.97;;;;;;;-145.18;100.00;60484.78;5086088;28;20495;-70
2021/09/23 12:16:18;;;;;;;13.63;5.93;;;;;;;-145.18;100.00;60484.78;5081049;28;20491;-69
2021/09/23 12:18:47;;;;;;;13.77;6.30;;;;;;;-145.18;100.00;60484.78;5081248;28;20411;-70
2021/09/23 12:21:15;;;;;;;12.37;5.77;;;;;;;-145.18;100.00;60484.78;5084977;28;20032;-70
2021/09/23 12:23:46;;;;;;;11.80;6.03;;;;;;;-145.18;100.00;60484.78;5080713;28;20032;-70
2021/09/23 12:26:17;;;;;;;17.53;7.30;;;;;;;-145.18;100.00;60484.78;5080369;28;20028;-70
2021/09/23 12:28:49;;;;;;;12.87;5.73;;;;;;;-145.18;100.00;60484.78;5079855;28;20272;-71
2021/09/23 12:31:26;;;;;;;14.17;5.53;;;;;;;-145.18;100.00;60484.78;5086760;28;20217;-70
2021/09/23 12:33:54;;;;;;;12.07;6.07;;;;;;;-145.18;100.00;60484.78;5084179;28;20085;-69
2021/09/23 12:36:31;;;;;;;14.63;6.57;;;;;;;-145.18;100.00;60484.78;5080586;28;20376;-69
2021/09/23 12:39:24;;;;;;;9.90;5.07;;;;;;;-145.18;100.00;60484.78;5080180;28;20089;-69
2021/09/23 12:42:00;;;;;;;12.33;5.60;;;;;;;-145.18;100.00;60484.78;5089566;28;20044;-69
2021/09/23 12:44:28;;;;;;;9.80;5.23;;;;;;;-145.18;100.00;60484.78;5068887;28;20032;-70
2021/09/23 12:47:25;;;;;;;12.27;5.57;;;;;;;-145.18;100.00;60484.78;5073312;28;20039;-69
2021/09/23 12:50:05;;;;;;;10.77;4.93;;;;;;;-145.18;100.00;60484.78;5034282;28;20104;-71
2021/09/23 12:52:39;;;;;;;10.73;5.50;;;;;;;-145.18;100.00;60484.78;5035892;28;20089;-70
2021/09/23 12:55:26;;;;;;;9.80;5.40;;;;;;;-145.18;100.00;60484.78;5038825;28;20075;-70
2021/09/23 12:58:00;;;;;;;10.73;5.57;;;;;;;-145.18;100.00;60484.78;5036954;28;20036;-71
2021/09/23 13:00:34;;;;;;;10.40;5.07;;;;;;;-145.18;100.00;60484.78;5036767;28;20488;-70
2021/09/23 13:03:10;;;;;;;10.57;4.40;;;;;;;-145.18;100.00;60484.78;5035487;28;20509;-69
2021/09/23 13:05:38;;;;;;;8.17;4.80;;;;;;;-145.18;100.00;60484.78;5036465;28;20041;-70
2021/09/23 13:08:20;;;;;;;11.90;4.87;;;;;;;-145.18;100.00;60484.78;5036206;28;20137;-70
2021/09/23 13:10:46;;;;;;;8.30;4.35;;;;;;;-145.18;100.00;60484.78;5036269;28;20041;-70
2021/09/23 13:13:12;;;;;;;10.10;5.13;;;;;;;-145.18;100.00;60484.78;5035433;28;20055;-70
2021/09/23 13:15:45;;;;;;;8.10;4.70;;;;;;;-145.18;100.00;60484.78;5036004;28;20025;-70
2021/09/23 13:18:19;;;;;;;9.33;4.70;;;;;;;-145.18;100.00;60484.78;5035971;28;20488;-70
2021/09/23 13:20:56;;;;;;;9.47;5.17;;;;;;;-145.18;100.00;60484.78;5022374;28;20029;-70
2021/09/23 13:23:32;;;;;;;10.73;5.37;;;;;;;-145.18;100.00;60484.78;5035692;28;20562;-70
2021/09/23 13:26:01;;;;;;;9.13;4.87;;;;;;;-145.18;100.00;60484.78;5047821;28;20031;-70
2021/09/23 13:28:35;;;;;;;9.20;5.00;;;;;;;-145.18;100.00;60484.78;5079680;28;20166;-70
2021/09/23 13:31:12;;;;;;;9.20;4.03;;;;;;;-145.18;100.00;60484.78;5076072;28;20516;-70
2021/09/23 13:33:39;;;;;;;9.03;4.33;;;;;;;-145.18;100.00;60484.78;5078922;28;20042;-70
2021/09/23 13:36:05;;;;;;;8.97;5.00;;;;;;;-145.18;100.00;60484.78;5078503;28;20027;-70
2021/09/23 13:38:33;;;;;;;8.80;5.23;;;;;;;-145.18;100.00;60484.78;5079236;28;20032;-70
2021/09/23 13:41:01;;;;;;;10.23;4.83;;;;;;;-145.18;100.00;60484.78;5068867;28;20038;-70
2021/09/23 13:43:27;;;;;;;10.33;5.23;;;;;;;-145.18;100.00;60484.78;5078640;28;20324;-70
2021/09/23 13:45:53;;;;;;;12.43;5.23;;;;;;;-145.18;100.00;60484.78;5078832;28;20084;-70
2021/09/23 13:48:20;;;;;;;9.93;5.00;;;;;;;-145.18;100.00;60484.78;5071049;28;20036;-70
2021/09/23 13:50:48;;;;;;;10.50;5.80;;;;;;;-145.18;100.00;60484.78;5079612;28;20028;-70
2021/09/23 13:53:13;;;;;;;12.27;5.93;;;;;;;-145.18;100.00;60484.78;5078061;28;20260;-70
2021/09/23 13:55:39;;;;;;;10.57;5.43;;;;;;;-145.18;100.00;60484.78;5069839;28;20035;-70